Antonio B. Won Pat International Airport
PGUM : now visible

Airfield :











YOU CAN JOIN US ON...

 
LOGIN :

Register | Disclaimer

   EN    FR    IT 

 









Legend :    VFR   Marginal VFR   IFR   Intensive IFR   Very Intensive IFR
Visi :
Ceiling :
>= 8 km
>= 3000ft
5 to 8 km
1000 to 3000 ft
1500m to 5 km
500 to 1000 ft
800 to 1500m
200 to 500 ft
< 800m
< 200 ft
Symbols :   Thunderstorms  Fog  Heavy snow  Heavy precipitations  Wind > 20 kt






- Airport Elevation : 298 ft
- IATA code : GUM


PGUM - Antonio B. Won Pat International

CURRENT METAR :
  • 120008Z 10008KT 10SM FEW018 SCT029 29/25 A2989 RMK AO2 T02890250

EXPIRED METARs :
  • 112354Z 12008KT 10SM SCT020 BKN029 28/24 A2990 RMK AO2 SLP115 60001 T02830244 10289 20267 51016
  • 112341Z 11007KT 10SM BKN019 BKN026 28/25 A2989 RMK AO2 T02830250
  • 112254Z 12006KT 10SM FEW029 BKN070 28/24 A2989 RMK AO2 RAB2157E07B09E36 SLP114 P0001 T02830244
  • 112219Z 13008KT 9SM -RA SCT019 BKN034 OVC070 27/24 A2988 RMK AO2 RAB2157E07B09 P0000 T02670244
  • 112207Z 15006KT 10SM SCT018 BKN024 BKN030 27/24 A2988 RMK AO2 RAB2157E07 P0000 T02720244
  • 112154Z 14007KT 10SM FEW020 FEW029 SCT035 28/24 A2987 RMK AO2 SLP106 T02780239

TAF PGUM
Valid from the 12 at 00:00 until the 13 at 06:00 UTC


112336Z 1200/1306 11011KT P6SM VCSH SCT015 SCT050



MET'MAP, your aeronautical weather chart ! - Copyright ORBIFLY December 2007 - Disclaimer

ORBIFLY MET'MAP TEAM :

Programming & Development : Alexandra Zaïnal
Concept & Development : Baudouin d'Aumeries
Co-Development & Prog : Marc-Olivier Méhu
Technical & hardware support : Manuel Goepfert

Contact : metmap@orbifly.com




SOURCES & CREDITS :

   NOAA       Earth
Advisory